Time;durP1;ratioP1;P1;durP2;ratioP2;P2;SDS_P1;SDS_P2;PMS_P1;PMS_P2;Temp;Humidity;BMP_temperature;BMP_pressure;BME280_temperature;BME280_humidity;BME280_pressure;Samples;Min_cycle;Max_cycle;Signal;HPM_P1;HPM_P2
2022/07/18 00:01:43;;;;;;;;;;;21.90;48.00;;;;;;5074148;28;19966;-73
2022/07/18 00:04:09;;;;;;;;;;;21.90;48.10;;;;;;5073832;28;19938;-74
2022/07/18 00:06:35;;;;;;;;;;;21.90;48.00;;;;;;5073734;28;19920;-73
2022/07/18 00:09:00;;;;;;;;;;;21.90;48.20;;;;;;5073704;28;19908;-73
2022/07/18 00:11:26;;;;;;;;;;;21.80;48.40;;;;;;5073579;28;20067;-73
2022/07/18 00:13:51;;;;;;;;;;;21.80;48.20;;;;;;5073768;28;19916;-74
2022/07/18 00:16:17;;;;;;;;;;;21.80;48.50;;;;;;5073799;28;19915;-74
2022/07/18 00:18:43;;;;;;;;;;;21.80;48.60;;;;;;5073743;28;19908;-73
2022/07/18 00:21:09;;;;;;;;;;;21.80;48.70;;;;;;5073743;28;19908;-73
2022/07/18 00:23:34;;;;;;;;;;;21.70;48.80;;;;;;5073967;28;20424;-73
2022/07/18 00:26:00;;;;;;;;;;;21.70;48.70;;;;;;5073804;28;19908;-73
2022/07/18 00:28:25;;;;;;;;;;;21.70;48.90;;;;;;5073361;28;19955;-74
2022/07/18 00:30:51;;;;;;;;;;;21.60;48.80;;;;;;5073611;28;19908;-73
2022/07/18 00:33:16;;;;;;;;;;;21.60;49.10;;;;;;5073406;28;19909;-73
2022/07/18 00:35:42;;;;;;;;;;;21.60;49.40;;;;;;5055672;28;19915;-74
2022/07/18 00:38:08;;;;;;;;;;;21.50;49.10;;;;;;5073580;28;19995;-73
2022/07/18 00:40:33;;;;;;;;;;;21.50;49.40;;;;;;5073191;28;19920;-73
2022/07/18 00:42:59;;;;;;;;;;;21.50;49.40;;;;;;5073266;28;19916;-72
2022/07/18 00:45:24;;;;;;;;;;;21.40;49.80;;;;;;5073538;28;19912;-73
2022/07/18 00:47:51;;;;;;;;;;;21.50;49.70;;;;;;5077096;28;19912;-73
2022/07/18 00:50:17;;;;;;;;;;;21.40;49.50;;;;;;5077200;28;20309;-73
2022/07/18 00:52:43;;;;;;;;;;;21.40;49.40;;;;;;5077096;28;19940;-73
2022/07/18 00:55:08;;;;;;;;;;;21.40;49.80;;;;;;5076908;28;19909;-73
2022/07/18 00:57:34;;;;;;;;;;;21.40;49.60;;;;;;5076798;28;19995;-73
2022/07/18 01:02:44;;;;;;;;;;;21.40;50.00;;;;;;5076706;28;20282;-73
2022/07/18 01:05:10;;;;;;;;;;;21.30;49.80;;;;;;5077138;28;19909;-73
2022/07/18 01:07:36;;;;;;;;;;;21.30;50.10;;;;;;5076785;28;19908;-73
2022/07/18 01:10:02;;;;;;;;;;;21.30;50.00;;;;;;5076585;28;19916;-74
2022/07/18 01:12:28;;;;;;;;;;;21.30;50.30;;;;;;5076768;28;19970;-74
2022/07/18 01:14:55;;;;;;;;;;;21.30;50.10;;;;;;5076889;28;19908;-73
2022/07/18 01:17:21;;;;;;;;;;;21.30;50.40;;;;;;5076590;28;19908;-73
2022/07/18 01:19:47;;;;;;;;;;;21.30;50.50;;;;;;5076713;28;19908;-73
2022/07/18 01:22:14;;;;;;;;;;;21.30;50.40;;;;;;5076710;28;19955;-73
2022/07/18 01:24:41;;;;;;;;;;;21.30;50.30;;;;;;5076605;28;19908;-74
2022/07/18 01:27:07;;;;;;;;;;;21.30;50.50;;;;;;5076617;28;20256;-72
2022/07/18 01:29:33;;;;;;;;;;;21.30;50.30;;;;;;5076453;28;19908;-73
2022/07/18 01:32:05;;;;;;;;;;;21.30;50.60;;;;;;5076372;28;19924;-73
2022/07/18 01:34:31;;;;;;;;;;;21.30;50.50;;;;;;5076399;28;19962;-73
2022/07/18 01:36:57;;;;;;;;;;;21.20;50.60;;;;;;5076244;28;19991;-74
2022/07/18 01:39:22;;;;;;;;;;;21.20;50.70;;;;;;5076465;28;19908;-74
2022/07/18 01:41:54;;;;;;;;;;;21.20;50.50;;;;;;5076407;28;20347;-73
2022/07/18 01:44:20;;;;;;;;;;;21.20;51.00;;;;;;5076707;28;19908;-73
2022/07/18 01:46:45;;;;;;;;;;;21.20;50.70;;;;;;5058107;28;19919;-73
2022/07/18 01:49:11;;;;;;;;;;;21.20;50.60;;;;;;5076179;28;19948;-74
2022/07/18 01:51:36;;;;;;;;;;;21.10;51.00;;;;;;5058183;28;19923;-74
2022/07/18 01:54:02;;;;;;;;;;;21.10;51.00;;;;;;5076035;28;19954;-74
2022/07/18 01:56:28;;;;;;;;;;;21.10;50.90;;;;;;5075914;28;19909;-74
2022/07/18 01:58:54;;;;;;;;;;;21.10;51.00;;;;;;5075056;28;19915;-74
2022/07/18 02:01:19;;;;;;;;;;;21.10;51.20;;;;;;5057968;28;20329;-74
2022/07/18 02:03:45;;;;;;;;;;;21.10;51.20;;;;;;5075702;28;19913;-73
2022/07/18 02:06:10;;;;;;;;;;;21.10;51.10;;;;;;5075588;28;19909;-74
2022/07/18 02:08:36;;;;;;;;;;;21.10;51.20;;;;;;5075869;28;20006;-74
2022/07/18 02:11:01;;;;;;;;;;;21.10;51.10;;;;;;5075526;28;19992;-73
2022/07/18 02:13:27;;;;;;;;;;;21.10;51.10;;;;;;5076201;28;20046;-74
2022/07/18 02:15:55;;;;;;;;;;;21.10;51.40;;;;;;5075565;28;19909;-73
2022/07/18 02:18:21;;;;;;;;;;;21.10;51.30;;;;;;5057623;28;19908;-73
2022/07/18 02:20:46;;;;;;;;;;;21.10;51.30;;;;;;5075318;28;19931;-74
2022/07/18 02:23:12;;;;;;;;;;;21.10;51.30;;;;;;5075246;28;19908;-74
2022/07/18 02:25:37;;;;;;;;;;;21.10;51.20;;;;;;5075639;28;19908;-73
2022/07/18 02:28:03;;;;;;;;;;;21.10;51.20;;;;;;5075724;28;20003;-73
2022/07/18 02:30:29;;;;;;;;;;;21.10;51.60;;;;;;5075229;28;20274;-74
2022/07/18 02:32:55;;;;;;;;;;;21.10;51.50;;;;;;5075089;28;19920;-74
2022/07/18 02:35:20;;;;;;;;;;;21.10;51.60;;;;;;5074946;28;19962;-74
2022/07/18 02:37:46;;;;;;;;;;;21.00;51.40;;;;;;5074965;28;19912;-74
2022/07/18 02:40:11;;;;;;;;;;;21.00;51.60;;;;;;5075101;28;19920;-73
2022/07/18 02:42:37;;;;;;;;;;;21.00;51.70;;;;;;5075270;28;19909;-74
2022/07/18 02:45:04;;;;;;;;;;;21.00;51.80;;;;;;5074840;28;19913;-73
2022/07/18 02:47:30;;;;;;;;;;;21.00;51.90;;;;;;5057311;28;19923;-74
2022/07/18 02:49:55;;;;;;;;;;;21.00;51.90;;;;;;5074744;28;20413;-73
2022/07/18 02:52:21;;;;;;;;;;;20.90;52.10;;;;;;5074516;28;19923;-74
2022/07/18 02:54:46;;;;;;;;;;;20.90;52.20;;;;;;5075164;28;20251;-73
2022/07/18 02:57:12;;;;;;;;;;;20.90;51.90;;;;;;5074910;28;20385;-73
2022/07/18 02:59:38;;;;;;;;;;;20.90;52.00;;;;;;5074914;28;20050;-73
2022/07/18 03:02:03;;;;;;;;;;;20.90;52.20;;;;;;5056678;28;19966;-73
2022/07/18 03:04:29;;;;;;;;;;;20.90;52.10;;;;;;5074376;28;19908;-74
2022/07/18 03:06:55;;;;;;;;;;;20.90;52.20;;;;;;5056728;28;19919;-73
2022/07/18 03:09:20;;;;;;;;;;;20.90;52.20;;;;;;5074411;28;19999;-73
2022/07/18 03:11:46;;;;;;;;;;;20.90;52.20;;;;;;5074234;28;19916;-74
2022/07/18 03:14:11;;;;;;;;;;;20.90;52.40;;;;;;5074419;28;19908;-74
2022/07/18 03:16:37;;;;;;;;;;;20.90;52.60;;;;;;5074323;28;19954;-72
2022/07/18 03:19:02;;;;;;;;;;;20.90;52.50;;;;;;5074392;28;20381;-74
2022/07/18 03:21:28;;;;;;;;;;;20.90;52.60;;;;;;5074119;28;20381;-73
2022/07/18 03:23:54;;;;;;;;;;;20.90;52.50;;;;;;5056676;28;19909;-73
2022/07/18 03:26:20;;;;;;;;;;;20.90;52.70;;;;;;5074153;28;20236;-74
2022/07/18 03:28:45;;;;;;;;;;;20.90;52.40;;;;;;5074381;28;19908;-74
2022/07/18 03:31:11;;;;;;;;;;;20.90;52.80;;;;;;5074211;28;19931;-74
2022/07/18 03:33:38;;;;;;;;;;;20.90;52.50;;;;;;5074208;28;19915;-73
2022/07/18 03:36:03;;;;;;;;;;;20.90;52.80;;;;;;5074091;28;19912;-72
2022/07/18 03:38:29;;;;;;;;;;;21.00;52.80;;;;;;5074232;28;19931;-73
2022/07/18 03:40:54;;;;;;;;;;;21.00;52.90;;;;;;5074114;28;19933;-74
2022/07/18 03:43:20;;;;;;;;;;;21.00;52.90;;;;;;5074062;28;20274;-74
2022/07/18 03:45:46;;;;;;;;;;;21.00;52.90;;;;;;5074379;28;20338;-73
2022/07/18 03:48:11;;;;;;;;;;;20.90;52.80;;;;;;5074457;28;19915;-74
2022/07/18 03:50:37;;;;;;;;;;;21.00;53.00;;;;;;5073793;28;19916;-74
2022/07/18 03:53:02;;;;;;;;;;;20.90;53.10;;;;;;5074207;28;20268;-73
2022/07/18 03:55:28;;;;;;;;;;;21.00;53.10;;;;;;5056177;28;20014;-74
2022/07/18 03:57:54;;;;;;;;;;;21.00;53.20;;;;;;5074016;28;19966;-74
2022/07/18 04:00:19;;;;;;;;;;;21.00;53.30;;;;;;5073993;28;19909;-74
2022/07/18 04:02:46;;;;;;;;;;;21.00;53.20;;;;;;5073805;28;19919;-73
2022/07/18 04:05:12;;;;;;;;;;;21.00;53.00;;;;;;5055902;28;19932;-74
2022/07/18 04:07:38;;;;;;;;;;;21.10;53.60;;;;;;5073454;28;19908;-73
2022/07/18 04:10:04;;;;;;;;;;;21.10;53.40;;;;;;5073895;28;19915;-72
2022/07/18 04:12:30;;;;;;;;;;;21.10;53.40;;;;;;5055651;28;19916;-73
2022/07/18 04:14:56;;;;;;;;;;;21.10;53.20;;;;;;5073805;28;19909;-73
2022/07/18 04:17:22;;;;;;;;;;;21.10;53.40;;;;;;5073488;28;20341;-74
2022/07/18 04:19:47;;;;;;;;;;;21.20;53.40;;;;;;5073769;28;19909;-74
2022/07/18 04:22:13;;;;;;;;;;;21.20;53.40;;;;;;5076862;28;19909;-74
2022/07/18 04:24:39;;;;;;;;;;;21.20;53.20;;;;;;5077871;28;20408;-73
2022/07/18 04:27:04;;;;;;;;;;;21.20;53.40;;;;;;5059739;28;19919;-73
2022/07/18 04:29:31;;;;;;;;;;;21.30;53.40;;;;;;5077999;28;19908;-73
2022/07/18 04:31:59;;;;;;;;;;;21.30;53.50;;;;;;5077269;28;19959;-76
2022/07/18 04:34:25;;;;;;;;;;;21.30;53.50;;;;;;5077497;28;20351;-74
2022/07/18 04:36:50;;;;;;;;;;;21.30;53.20;;;;;;5059963;28;19941;-74
2022/07/18 04:39:19;;;;;;;;;;;21.40;53.30;;;;;;5077158;28;20277;-74
2022/07/18 04:41:44;;;;;;;;;;;21.40;53.30;;;;;;5077562;28;20019;-74
2022/07/18 04:44:10;;;;;;;;;;;21.40;53.50;;;;;;5059539;28;20014;-73
2022/07/18 04:46:35;;;;;;;;;;;21.40;53.40;;;;;;5076996;28;20396;-74
2022/07/18 04:49:01;;;;;;;;;;;21.50;53.50;;;;;;5077044;28;19982;-73
2022/07/18 04:51:27;;;;;;;;;;;21.50;53.30;;;;;;5077061;28;19923;-74
2022/07/18 04:53:54;;;;;;;;;;;21.50;53.50;;;;;;5077117;28;19947;-73
2022/07/18 04:56:21;;;;;;;;;;;21.60;53.20;;;;;;5077226;28;19909;-74
2022/07/18 04:58:46;;;;;;;;;;;21.60;53.40;;;;;;5076885;28;20285;-73
2022/07/18 05:01:12;;;;;;;;;;;21.60;53.30;;;;;;5076851;28;19999;-74
2022/07/18 05:03:37;;;;;;;;;;;21.70;53.30;;;;;;5077035;28;20363;-74
2022/07/18 05:06:03;;;;;;;;;;;21.70;53.30;;;;;;5076910;28;19946;-74
2022/07/18 05:08:28;;;;;;;;;;;21.70;53.50;;;;;;5076849;28;20358;-74
2022/07/18 05:10:54;;;;;;;;;;;21.80;53.40;;;;;;5075632;28;19908;-74
2022/07/18 05:13:19;;;;;;;;;;;21.80;53.50;;;;;;5076818;28;20278;-74
2022/07/18 05:15:45;;;;;;;;;;;21.90;53.70;;;;;;5076722;28;19935;-74
2022/07/18 05:18:11;;;;;;;;;;;21.90;53.50;;;;;;5076741;28;19963;-73
2022/07/18 05:20:36;;;;;;;;;;;21.90;53.40;;;;;;5059012;28;19908;-73
2022/07/18 05:23:02;;;;;;;;;;;21.90;53.40;;;;;;5076835;28;19909;-73
2022/07/18 05:25:27;;;;;;;;;;;21.90;53.50;;;;;;5076719;28;19939;-73
2022/07/18 05:27:53;;;;;;;;;;;21.90;53.50;;;;;;5076507;28;19909;-73
2022/07/18 05:30:19;;;;;;;;;;;21.90;53.40;;;;;;5058355;28;20417;-74
2022/07/18 05:32:45;;;;;;;;;;;22.00;53.40;;;;;;5073346;28;19951;-74
2022/07/18 05:35:11;;;;;;;;;;;22.00;53.40;;;;;;5058577;28;19908;-74
2022/07/18 05:37:37;;;;;;;;;;;22.00;53.50;;;;;;5076361;28;19912;-73
2022/07/18 05:40:03;;;;;;;;;;;22.00;53.40;;;;;;5076099;28;19974;-74
2022/07/18 05:42:29;;;;;;;;;;;22.10;53.50;;;;;;5076347;28;20398;-73
2022/07/18 05:44:55;;;;;;;;;;;22.10;53.30;;;;;;5076067;28;19962;-74
2022/07/18 05:47:20;;;;;;;;;;;22.10;54.10;;;;;;5076167;28;20325;-73
2022/07/18 05:49:46;;;;;;;;;;;22.00;53.30;;;;;;5058196;28;19913;-73
2022/07/18 05:52:11;;;;;;;;;;;22.20;53.30;;;;;;5076195;28;19923;-74
2022/07/18 05:54:37;;;;;;;;;;;22.20;53.20;;;;;;5075993;28;19909;-74
2022/07/18 05:57:03;;;;;;;;;;;22.20;53.20;;;;;;5058003;28;19909;-73
2022/07/18 05:59:28;;;;;;;;;;;22.30;53.20;;;;;;5075662;28;19955;-74
2022/07/18 06:01:54;;;;;;;;;;;22.30;53.20;;;;;;5075611;28;19916;-73
2022/07/18 06:04:20;;;;;;;;;;;22.30;53.00;;;;;;5075866;28;19915;-73
2022/07/18 06:06:48;;;;;;;;;;;22.30;53.10;;;;;;5076172;28;19940;-74
2022/07/18 06:09:13;;;;;;;;;;;22.30;53.10;;;;;;5075760;28;20263;-74
2022/07/18 06:11:39;;;;;;;;;;;22.40;52.90;;;;;;5075413;28;19923;-73
2022/07/18 06:14:04;;;;;;;;;;;22.40;53.00;;;;;;5057798;28;19962;-74
2022/07/18 06:16:30;;;;;;;;;;;22.40;52.80;;;;;;5075297;28;19908;-74
2022/07/18 06:18:56;;;;;;;;;;;22.40;52.90;;;;;;5057909;28;20002;-74
2022/07/18 06:21:22;;;;;;;;;;;22.40;52.80;;;;;;5057880;28;20271;-74
2022/07/18 06:23:47;;;;;;;;;;;22.40;52.70;;;;;;5076072;28;20381;-74
2022/07/18 06:26:13;;;;;;;;;;;22.50;52.70;;;;;;5075452;28;19948;-73
2022/07/18 06:28:38;;;;;;;;;;;22.50;52.60;;;;;;5075174;28;19915;-75
2022/07/18 06:31:04;;;;;;;;;;;22.50;52.70;;;;;;5057589;28;19921;-74
2022/07/18 06:33:29;;;;;;;;;;;22.50;52.60;;;;;;5075160;28;19908;-74
2022/07/18 06:35:56;;;;;;;;;;;22.60;52.60;;;;;;5075222;28;20006;-72
2022/07/18 06:38:21;;;;;;;;;;;22.50;52.50;;;;;;5075199;28;19915;-74
2022/07/18 06:40:47;;;;;;;;;;;22.60;52.60;;;;;;5046376;28;19921;-73
2022/07/18 06:43:18;;;;;;;;;;;22.60;52.70;;;;;;5037092;28;19955;-75
2022/07/18 06:45:47;;;;;;;;;;;22.70;52.40;;;;;;5054840;28;19912;-74
2022/07/18 06:48:14;;;;;;;;;;;22.70;52.30;;;;;;5055417;28;19996;-74
2022/07/18 06:50:39;;;;;;;;;;;22.70;52.40;;;;;;5054946;28;20307;-74
2022/07/18 06:53:05;;;;;;;;;;;22.80;52.40;;;;;;5054641;28;19920;-74
2022/07/18 06:55:30;;;;;;;;;;;22.80;52.40;;;;;;5054752;28;19912;-73
2022/07/18 06:57:56;;;;;;;;;;;22.80;52.40;;;;;;5054926;28;19908;-73
2022/07/18 07:00:21;;;;;;;;;;;22.90;52.20;;;;;;5054628;28;20316;-73
2022/07/18 07:02:48;;;;;;;;;;;23.00;52.40;;;;;;5054936;28;19996;-73
2022/07/18 07:05:14;;;;;;;;;;;23.00;52.20;;;;;;5037269;28;19916;-74
2022/07/18 07:07:40;;;;;;;;;;;23.00;52.30;;;;;;5054763;28;20003;-74
2022/07/18 07:10:06;;;;;;;;;;;23.00;52.20;;;;;;5036840;28;19917;-75
2022/07/18 07:12:39;;;;;;;;;;;23.00;52.30;;;;;;5036363;28;20323;-74
2022/07/18 07:15:05;;;;;;;;;;;23.00;52.30;;;;;;5054488;28;19908;-74
2022/07/18 07:17:31;;;;;;;;;;;23.00;52.10;;;;;;5054757;28;19909;-75
2022/07/18 07:19:56;;;;;;;;;;;23.00;52.10;;;;;;5054917;28;19908;-74
2022/07/18 07:22:22;;;;;;;;;;;23.00;52.00;;;;;;5036362;28;20011;-74
2022/07/18 07:24:48;;;;;;;;;;;23.10;52.10;;;;;;5054327;28;19909;-74
2022/07/18 07:27:14;;;;;;;;;;;23.00;51.80;;;;;;5036421;28;20336;-74
2022/07/18 07:29:39;;;;;;;;;;;23.10;51.80;;;;;;5054252;28;20016;-74
2022/07/18 07:32:05;;;;;;;;;;;23.10;51.70;;;;;;5054376;28;20023;-74
2022/07/18 07:34:31;;;;;;;;;;;23.20;51.70;;;;;;5054064;28;20326;-73
2022/07/18 07:36:56;;;;;;;;;;;23.20;51.60;;;;;;5054018;28;20000;-74
2022/07/18 07:39:22;;;;;;;;;;;23.20;51.60;;;;;;5054099;28;20349;-74
2022/07/18 07:41:47;;;;;;;;;;;23.20;51.50;;;;;;5072705;28;19927;-74
2022/07/18 07:44:13;;;;;;;;;;;23.20;51.40;;;;;;5074249;28;19999;-74
2022/07/18 07:46:38;;;;;;;;;;;23.30;51.40;;;;;;5074274;28;19913;-73
2022/07/18 07:49:04;;;;;;;;;;;23.40;51.40;;;;;;5073666;28;19936;-74
2022/07/18 07:51:30;;;;;;;;;;;23.40;51.30;;;;;;5074165;28;19971;-74
2022/07/18 07:53:56;;;;;;;;;;;23.30;51.30;;;;;;5074023;28;19999;-73
2022/07/18 07:56:21;;;;;;;;;;;23.40;51.30;;;;;;5073170;28;19944;-74
2022/07/18 07:58:47;;;;;;;;;;;23.40;51.20;;;;;;5073789;28;19916;-74
2022/07/18 08:01:14;;;;;;;;;;;23.40;51.20;;;;;;5074045;28;19909;-74
2022/07/18 08:03:40;;;;;;;;;;;23.40;51.10;;;;;;5073668;28;19908;-74
2022/07/18 08:06:05;;;;;;;;;;;23.40;51.10;;;;;;5073807;28;20027;-74
2022/07/18 08:08:31;;;;;;;;;;;23.50;51.00;;;;;;5073620;28;19915;-73
2022/07/18 08:10:56;;;;;;;;;;;23.50;50.90;;;;;;5073493;28;19908;-74
2022/07/18 08:13:22;;;;;;;;;;;23.60;50.80;;;;;;5073651;28;19920;-74
2022/07/18 08:15:47;;;;;;;;;;;23.50;50.70;;;;;;5055645;28;19917;-74
2022/07/18 08:18:13;;;;;;;;;;;23.50;50.80;;;;;;5073601;28;20009;-74
2022/07/18 08:20:39;;;;;;;;;;;23.50;50.70;;;;;;5055755;28;19935;-74
2022/07/18 08:23:05;;;;;;;;;;;23.50;50.50;;;;;;5073515;28;19908;-74
2022/07/18 08:25:32;;;;;;;;;;;23.50;50.40;;;;;;5073598;28;19970;-74
2022/07/18 08:27:58;;;;;;;;;;;23.50;50.40;;;;;;5055656;28;19912;-74
2022/07/18 08:30:24;;;;;;;;;;;23.60;50.60;;;;;;5075155;28;19909;-74
2022/07/18 08:32:50;;;;;;;;;;;23.50;50.50;;;;;;5074273;28;19917;-74
2022/07/18 08:35:16;;;;;;;;;;;23.60;50.50;;;;;;5073424;28;20407;-74
2022/07/18 08:37:41;;;;;;;;;;;23.70;50.50;;;;;;5073405;28;19912;-74
2022/07/18 08:40:07;;;;;;;;;;;23.70;50.40;;;;;;5049794;28;19928;-74
2022/07/18 08:42:34;;;;;;;;;;;23.70;50.30;;;;;;5053278;28;19909;-74
2022/07/18 08:44:59;;;;;;;;;;;23.70;50.30;;;;;;5053529;28;20279;-74
2022/07/18 08:47:25;;;;;;;;;;;23.70;50.30;;;;;;5053386;28;19971;-73
2022/07/18 08:49:52;;;;;;;;;;;23.80;50.30;;;;;;5053429;28;20355;-74
2022/07/18 08:52:19;;;;;;;;;;;23.90;50.10;;;;;;5053007;28;19917;-74
2022/07/18 08:54:44;;;;;;;;;;;24.00;50.00;;;;;;5035216;28;20271;-74
2022/07/18 08:57:10;;;;;;;;;;;24.00;49.90;;;;;;5053371;28;19909;-74
2022/07/18 08:59:35;;;;;;;;;;;24.10;49.90;;;;;;5053417;28;20382;-75
2022/07/18 09:02:01;;;;;;;;;;;24.20;49.90;;;;;;5053393;28;19963;-74
2022/07/18 09:04:37;;;;;;;;;;;24.20;49.70;;;;;;5053332;28;19959;-74
2022/07/18 09:07:03;;;;;;;;;;;24.20;50.10;;;;;;5054323;28;19955;-76
2022/07/18 09:09:29;;;;;;;;;;;24.30;49.40;;;;;;5057019;28;19909;-73
2022/07/18 09:11:55;;;;;;;;;;;24.30;49.30;;;;;;5057022;28;19983;-73
2022/07/18 09:14:46;;;;;;;;;;;24.20;49.40;;;;;;5056876;28;20344;-73
2022/07/18 09:17:12;;;;;;;;;;;24.30;49.40;;;;;;5035138;28;19916;-74
2022/07/18 09:19:39;;;;;;;;;;;24.40;49.40;;;;;;5056890;28;19908;-74
2022/07/18 09:22:11;;;;;;;;;;;24.40;49.20;;;;;;5056587;28;19944;-74
2022/07/18 09:24:55;;;;;;;;;;;24.50;49.20;;;;;;5056471;28;19962;-74
2022/07/18 09:27:28;;;;;;;;;;;24.50;49.00;;;;;;5056719;28;19909;-74
2022/07/18 09:30:06;;;;;;;;;;;24.60;49.00;;;;;;5038548;28;19915;-75
2022/07/18 09:32:31;;;;;;;;;;;24.70;49.00;;;;;;5056071;28;19952;-74
2022/07/18 09:35:03;;;;;;;;;;;24.70;48.80;;;;;;5038369;28;19908;-75
2022/07/18 09:37:29;;;;;;;;;;;24.70;48.80;;;;;;5038517;28;19909;-74
2022/07/18 09:40:13;;;;;;;;;;;24.70;48.70;;;;;;5041799;28;20355;-74
2022/07/18 09:42:39;;;;;;;;;;;24.70;48.70;;;;;;5076927;28;19908;-74
2022/07/18 09:45:05;;;;;;;;;;;24.80;48.60;;;;;;5076364;28;20154;-74
2022/07/18 09:47:30;;;;;;;;;;;24.80;48.50;;;;;;5076244;28;20267;-74
2022/07/18 09:49:56;;;;;;;;;;;24.80;48.50;;;;;;5058020;28;19908;-74
2022/07/18 09:52:23;;;;;;;;;;;24.80;48.40;;;;;;5075249;28;20463;-74
2022/07/18 09:54:49;;;;;;;;;;;24.80;48.40;;;;;;5075840;28;19909;-74
2022/07/18 09:57:24;;;;;;;;;;;24.80;48.30;;;;;;5075763;28;19959;-73
2022/07/18 09:59:50;;;;;;;;;;;24.80;48.20;;;;;;5075946;28;19959;-74
2022/07/18 10:02:16;;;;;;;;;;;24.80;48.10;;;;;;5075617;28;19956;-74
2022/07/18 10:04:42;;;;;;;;;;;24.80;48.20;;;;;;5075689;28;20374;-72
2022/07/18 10:07:08;;;;;;;;;;;24.80;48.00;;;;;;5075745;28;19952;-73
2022/07/18 10:09:34;;;;;;;;;;;24.80;48.10;;;;;;5075989;28;19908;-74
2022/07/18 10:11:59;;;;;;;;;;;24.90;48.10;;;;;;5075396;28;19916;-74
2022/07/18 10:14:27;;;;;;;;;;;24.90;48.00;;;;;;5075700;28;19959;-73
2022/07/18 10:16:54;;;;;;;;;;;24.90;48.10;;;;;;5076151;28;19915;-74
2022/07/18 10:19:19;;;;;;;;;;;24.90;48.00;;;;;;5074670;28;19916;-75
2022/07/18 10:21:47;;;;;;;;;;;24.90;47.80;;;;;;5075698;28;20419;-74
2022/07/18 10:24:12;;;;;;;;;;;24.90;47.50;;;;;;5057262;28;20397;-74
2022/07/18 10:26:38;;;;;;;;;;;24.90;47.40;;;;;;5075477;28;19917;-74
2022/07/18 10:29:03;;;;;;;;;;;24.90;47.40;;;;;;5075331;28;19909;-74
2022/07/18 10:31:34;;;;;;;;;;;25.00;47.40;;;;;;5057278;28;19915;-73
2022/07/18 10:34:09;;;;;;;;;;;25.00;47.20;;;;;;5075249;28;19909;-74
2022/07/18 10:36:35;;;;;;;;;;;25.00;47.10;;;;;;5074847;28;19909;-74
2022/07/18 10:39:05;;;;;;;;;;;25.00;47.00;;;;;;5075672;28;20019;-74
2022/07/18 10:41:30;;;;;;;;;;;25.00;46.90;;;;;;5075375;28;19928;-74
2022/07/18 10:43:56;;;;;;;;;;;24.60;46.80;;;;;;5075198;28;19913;-75
2022/07/18 10:46:21;;;;;;;;;;;25.00;46.90;;;;;;5075305;28;19909;-73
2022/07/18 10:48:48;;;;;;;;;;;25.00;46.90;;;;;;5056932;28;19920;-75
2022/07/18 10:51:18;;;;;;;;;;;25.00;46.90;;;;;;5074627;28;19908;-75
2022/07/18 10:54:01;;;;;;;;;;;25.00;46.80;;;;;;5074921;28;19908;-73
2022/07/18 10:56:27;;;;;;;;;;;25.00;46.80;;;;;;5074925;28;19908;-74
2022/07/18 10:58:54;;;;;;;;;;;25.00;46.90;;;;;;5074753;28;19955;-75
2022/07/18 11:01:20;;;;;;;;;;;25.00;46.70;;;;;;5074594;28;19908;-74
2022/07/18 11:03:46;;;;;;;;;;;25.00;46.70;;;;;;5074470;28;19912;-75
2022/07/18 11:06:11;;;;;;;;;;;25.10;46.70;;;;;;5074529;28;19908;-74
2022/07/18 11:08:37;;;;;;;;;;;25.00;46.50;;;;;;5074410;28;19943;-75
2022/07/18 11:11:03;;;;;;;;;;;25.10;46.60;;;;;;5074597;28;20358;-75
2022/07/18 11:13:36;;;;;;;;;;;25.10;46.40;;;;;;5056658;28;20324;-75
2022/07/18 11:16:04;;;;;;;;;;;25.10;46.30;;;;;;5056650;28;19908;-76
2022/07/18 11:18:30;;;;;;;;;;;25.10;46.20;;;;;;5074192;28;19908;-74
2022/07/18 11:20:56;;;;;;;;;;;25.10;46.20;;;;;;5074467;28;19909;-73
2022/07/18 11:23:23;;;;;;;;;;;25.20;46.10;;;;;;5056378;28;19908;-74
2022/07/18 11:25:56;;;;;;;;;;;25.20;46.00;;;;;;5074090;28;19913;-74
2022/07/18 11:28:22;;;;;;;;;;;25.30;45.80;;;;;;5056236;28;19912;-74
2022/07/18 11:31:15;;;;;;;;;;;25.30;46.00;;;;;;5074017;28;19909;-74
2022/07/18 11:33:43;;;;;;;;;;;25.40;45.70;;;;;;5070587;28;20287;-74
2022/07/18 11:36:10;;;;;;;;;;;25.40;45.70;;;;;;5074520;28;19915;-74
2022/07/18 11:38:37;;;;;;;;;;;25.40;45.60;;;;;;5073935;28;19917;-74
2022/07/18 11:41:03;;;;;;;;;;;25.40;45.70;;;;;;5074214;28;20371;-74
2022/07/18 11:43:29;;;;;;;;;;;25.40;45.50;;;;;;5073830;28;19998;-74
2022/07/18 11:46:06;;;;;;;;;;;25.50;45.60;;;;;;5074541;28;19919;-74
2022/07/18 11:48:32;;;;;;;;;;;25.50;45.50;;;;;;5073819;28;19912;-74
2022/07/18 11:50:58;;;;;;;;;;;25.40;45.40;;;;;;5073512;28;19917;-74
2022/07/18 11:53:24;;;;;;;;;;;25.50;45.50;;;;;;5073928;28;19955;-74
2022/07/18 11:55:49;;;;;;;;;;;25.50;45.40;;;;;;5073664;28;19932;-74
2022/07/18 11:58:16;;;;;;;;;;;25.50;45.30;;;;;;5074083;28;20408;-74
2022/07/18 12:00:42;;;;;;;;;;;25.50;45.20;;;;;;5073695;28;19919;-73
2022/07/18 12:03:10;;;;;;;;;;;25.60;45.30;;;;;;5072565;28;20350;-76
2022/07/18 12:05:44;;;;;;;;;;;25.60;45.40;;;;;;5073834;28;19917;-74
2022/07/18 12:08:29;;;;;;;;;;;25.60;45.20;;;;;;5073996;28;19963;-74
2022/07/18 12:11:09;;;;;;;;;;;25.60;45.20;;;;;;5055642;28;19909;-73
2022/07/18 12:13:42;;;;;;;;;;;25.70;45.30;;;;;;5073805;28;19924;-74
2022/07/18 12:16:08;;;;;;;;;;;25.70;45.30;;;;;;5073754;28;19915;-74
2022/07/18 12:18:34;;;;;;;;;;;25.80;45.30;;;;;;5073735;28;19908;-75
2022/07/18 12:21:09;;;;;;;;;;;25.80;45.30;;;;;;5055420;28;19991;-74
2022/07/18 12:23:35;;;;;;;;;;;25.80;45.30;;;;;;5073953;28;19931;-74
2022/07/18 12:26:01;;;;;;;;;;;25.90;45.30;;;;;;5073656;28;19995;-74
2022/07/18 12:28:27;;;;;;;;;;;26.00;45.20;;;;;;5073817;28;19909;-74
2022/07/18 12:30:53;;;;;;;;;;;26.00;45.20;;;;;;5073840;28;19909;-74
2022/07/18 12:33:19;;;;;;;;;;;26.10;45.20;;;;;;5073538;28;20252;-74
2022/07/18 12:35:44;;;;;;;;;;;26.10;45.00;;;;;;5074045;28;19908;-73
2022/07/18 12:38:11;;;;;;;;;;;26.10;44.90;;;;;;5073607;28;20007;-73
2022/07/18 12:40:46;;;;;;;;;;;26.20;44.90;;;;;;5073192;28;19927;-75
2022/07/18 12:43:12;;;;;;;;;;;26.20;44.20;;;;;;5076358;28;19909;-74
2022/07/18 12:45:37;;;;;;;;;;;26.30;44.40;;;;;;5077472;28;20069;-74
2022/07/18 12:48:05;;;;;;;;;;;26.30;44.40;;;;;;5076000;28;19913;-72
2022/07/18 12:50:30;;;;;;;;;;;26.40;44.40;;;;;;5077708;28;19909;-74
2022/07/18 12:52:56;;;;;;;;;;;26.60;44.40;;;;;;5077188;28;20019;-74
2022/07/18 12:55:22;;;;;;;;;;;26.60;44.20;;;;;;5077246;28;20384;-75
2022/07/18 12:57:48;;;;;;;;;;;26.60;44.00;;;;;;5077334;28;19916;-73
2022/07/18 13:00:14;;;;;;;;;;;26.60;44.40;;;;;;5059374;28;19908;-73
2022/07/18 13:02:41;;;;;;;;;;;26.70;44.20;;;;;;5077034;28;19909;-74
2022/07/18 13:05:07;;;;;;;;;;;26.70;44.00;;;;;;5076897;28;20355;-75
2022/07/18 13:07:32;;;;;;;;;;;26.80;44.10;;;;;;5076980;28;19954;-74
2022/07/18 13:09:58;;;;;;;;;;;26.90;44.10;;;;;;5076840;28;20354;-75
2022/07/18 13:12:23;;;;;;;;;;;27.00;44.00;;;;;;5076461;28;20319;-73
2022/07/18 13:14:49;;;;;;;;;;;27.00;43.80;;;;;;5076882;28;19995;-73
2022/07/18 13:17:14;;;;;;;;;;;27.00;43.80;;;;;;5076609;28;20015;-74
2022/07/18 13:19:40;;;;;;;;;;;27.00;43.70;;;;;;5076573;28;19908;-75
2022/07/18 13:22:06;;;;;;;;;;;27.10;43.90;;;;;;5076351;28;20402;-74
2022/07/18 13:24:31;;;;;;;;;;;27.10;43.80;;;;;;5076481;28;19961;-73
2022/07/18 13:26:57;;;;;;;;;;;27.20;43.70;;;;;;5058715;28;19909;-73
2022/07/18 13:29:22;;;;;;;;;;;27.20;43.50;;;;;;5076218;28;19915;-74
2022/07/18 13:31:50;;;;;;;;;;;27.20;43.30;;;;;;5076482;28;19924;-75
2022/07/18 13:34:15;;;;;;;;;;;27.10;43.50;;;;;;5076454;28;19944;-74
2022/07/18 13:36:41;;;;;;;;;;;27.20;43.60;;;;;;5076450;28;19912;-74
2022/07/18 13:39:07;;;;;;;;;;;27.40;43.90;;;;;;5076407;28;19922;-74
2022/07/18 13:41:33;;;;;;;;;;;27.60;43.80;;;;;;5076074;28;19920;-74
2022/07/18 13:43:58;;;;;;;;;;;27.90;43.70;;;;;;5076135;28;19909;-74
2022/07/18 13:46:24;;;;;;;;;;;28.30;43.80;;;;;;5076249;28;19913;-75
2022/07/18 13:48:49;;;;;;;;;;;28.80;43.40;;;;;;5075987;28;19920;-75
2022/07/18 13:51:15;;;;;;;;;;;29.40;43.10;;;;;;5075732;28;19958;-75
2022/07/18 13:53:41;;;;;;;;;;;30.10;43.00;;;;;;5074717;28;19916;-72
2022/07/18 13:56:06;;;;;;;;;;;30.80;42.70;;;;;;5076143;28;19950;-74
2022/07/18 13:58:32;;;;;;;;;;;31.50;41.90;;;;;;5075681;28;19950;-74
2022/07/18 14:00:57;;;;;;;;;;;32.10;41.20;;;;;;5075946;28;20476;-74
2022/07/18 14:03:23;;;;;;;;;;;32.50;40.30;;;;;;5075791;28;19916;-74
2022/07/18 14:05:49;;;;;;;;;;;32.50;39.60;;;;;;5075781;28;20270;-75
2022/07/18 14:08:14;;;;;;;;;;;32.40;39.30;;;;;;5075463;28;19915;-75
2022/07/18 14:10:40;;;;;;;;;;;32.30;39.00;;;;;;5075575;28;19990;-75
2022/07/18 14:13:05;;;;;;;;;;;32.20;39.30;;;;;;5075598;28;19920;-75
2022/07/18 14:15:31;;;;;;;;;;;32.10;39.20;;;;;;5075163;28;19915;-75